createdAt,value
2018-12-01T00:00:22.258Z,19.37
2018-12-01T00:02:51.532Z,20.90
2018-12-01T00:05:19.916Z,19.07
2018-12-01T00:07:49.313Z,19.20
2018-12-01T00:10:17.704Z,19.37
2018-12-01T00:12:46.179Z,18.80
2018-12-01T00:15:18.960Z,18.73
2018-12-01T00:17:47.440Z,19.53
2018-12-01T00:20:17.171Z,19.10
2018-12-01T00:22:45.557Z,18.53
2018-12-01T00:25:13.971Z,19.93
2018-12-01T00:27:42.394Z,19.67
2018-12-01T00:30:13.711Z,19.20
2018-12-01T00:32:43.250Z,19.00
2018-12-01T00:35:13.023Z,18.77
2018-12-01T00:37:41.451Z,19.00
2018-12-01T00:40:14.826Z,18.73
2018-12-01T00:42:43.366Z,18.33
2018-12-01T00:45:12.918Z,19.03
2018-12-01T00:47:41.400Z,19.70
2018-12-01T00:50:13.778Z,19.40
2018-12-01T00:52:42.199Z,19.93
2018-12-01T00:55:12.907Z,19.47
2018-12-01T00:57:41.279Z,19.07
2018-12-01T01:00:16.522Z,20.00
2018-12-01T01:02:50.986Z,19.23
2018-12-01T01:05:20.298Z,18.83
2018-12-01T01:07:48.759Z,18.33
2018-12-01T01:10:17.149Z,18.90
2018-12-01T01:12:45.583Z,18.63
2018-12-01T01:15:14.020Z,18.53
2018-12-01T01:17:42.433Z,18.13
2018-12-01T01:20:14.923Z,18.17
2018-12-01T01:22:43.571Z,18.43
2018-12-01T01:25:13.339Z,18.97
2018-12-01T01:27:41.754Z,18.37
2018-12-01T01:30:16.067Z,17.93
2018-12-01T01:32:44.468Z,17.93
2018-12-01T01:35:13.048Z,18.43
2018-12-01T01:37:41.611Z,18.43
2018-12-01T01:40:13.035Z,18.73
2018-12-01T01:42:41.476Z,18.90
2018-12-01T01:45:13.870Z,19.73
2018-12-01T01:47:42.273Z,19.43
2018-12-01T01:50:13.279Z,20.00
2018-12-01T01:52:41.703Z,20.53
2018-12-01T01:55:11.155Z,19.80
2018-12-01T01:57:39.751Z,20.30
2018-12-01T02:00:23.080Z,20.77
2018-12-01T02:02:52.384Z,20.80
2018-12-01T02:05:21.830Z,20.60
2018-12-01T02:07:50.479Z,19.90
2018-12-01T02:10:19.879Z,19.70
2018-12-01T02:12:48.302Z,20.70
2018-12-01T02:15:16.724Z,20.03
2018-12-01T02:17:45.140Z,21.23
2018-12-01T02:20:15.543Z,21.37
2018-12-01T02:22:44.018Z,21.73
2018-12-01T02:25:13.458Z,21.23
2018-12-01T02:27:41.890Z,20.17
2018-12-01T02:30:12.821Z,21.13
2018-12-01T02:32:41.576Z,20.43
2018-12-01T02:35:12.569Z,20.50
2018-12-01T02:37:40.954Z,21.17
2018-12-01T02:40:10.535Z,21.03
2018-12-01T02:42:39.907Z,21.10
2018-12-01T02:45:19.616Z,21.33
2018-12-01T02:47:48.066Z,22.13
2018-12-01T02:50:20.744Z,22.43
2018-12-01T02:52:49.133Z,23.93
2018-12-01T02:55:17.520Z,21.03
2018-12-01T02:57:45.971Z,21.10
2018-12-01T03:00:14.364Z,21.43
2018-12-01T03:02:42.744Z,21.00
2018-12-01T03:05:12.114Z,21.53
2018-12-01T03:07:40.895Z,20.93
2018-12-01T03:10:11.878Z,20.30
2018-12-01T03:12:40.291Z,20.53
2018-12-01T03:15:09.938Z,20.57
2018-12-01T03:17:38.367Z,19.40
2018-12-01T03:20:11.118Z,18.77
2018-12-01T03:22:39.546Z,18.70
2018-12-01T03:25:09.157Z,18.63
2018-12-01T03:27:37.610Z,17.43
2018-12-01T03:30:09.719Z,17.90
2018-12-01T03:32:39.108Z,16.97
2018-12-01T03:35:12.946Z,17.33
2018-12-01T03:37:42.651Z,17.93
2018-12-01T03:40:11.838Z,16.30
2018-12-01T03:42:40.455Z,17.07
2018-12-01T03:45:12.214Z,16.87
2018-12-01T03:47:40.614Z,17.67
2018-12-01T03:50:10.505Z,15.93
2018-12-01T03:52:38.930Z,15.80
2018-12-01T03:55:18.715Z,15.70
2018-12-01T03:57:47.091Z,15.97
2018-12-01T04:00:15.500Z,15.10
2018-12-01T04:02:43.892Z,15.57
2018-12-01T04:05:12.303Z,15.57
2018-12-01T04:07:40.742Z,14.57
2018-12-01T04:10:09.137Z,15.70
2018-12-01T04:12:37.538Z,14.60
2018-12-01T04:15:05.955Z,14.53
2018-12-01T04:17:34.511Z,14.40
2018-12-01T04:20:02.935Z,15.30
2018-12-01T04:22:31.311Z,14.37
2018-12-01T04:24:59.717Z,14.43
2018-12-01T04:27:28.103Z,14.40
2018-12-01T04:29:56.509Z,13.70
2018-12-01T04:32:24.650Z,13.93
2018-12-01T04:34:52.846Z,13.77
2018-12-01T04:37:21.034Z,14.00
2018-12-01T04:39:49.174Z,13.67
2018-12-01T04:42:17.310Z,13.17
2018-12-01T04:44:45.530Z,13.60
2018-12-01T04:47:13.741Z,13.47
2018-12-01T04:49:41.982Z,13.37
2018-12-01T04:52:10.665Z,13.90
2018-12-01T04:54:38.811Z,13.00
2018-12-01T04:57:06.954Z,12.20
2018-12-01T04:59:35.118Z,13.07
2018-12-01T05:02:03.248Z,12.73
2018-12-01T05:04:31.390Z,12.47
2018-12-01T05:06:59.523Z,13.20
2018-12-01T05:09:27.640Z,12.23
2018-12-01T05:11:55.767Z,12.87
2018-12-01T05:14:23.886Z,12.57
2018-12-01T05:16:52.049Z,11.83
2018-12-01T05:19:20.185Z,12.03
2018-12-01T05:21:48.330Z,12.10
2018-12-01T05:24:16.465Z,12.43
2018-12-01T05:26:44.623Z,11.13
2018-12-01T05:29:12.775Z,12.13
2018-12-01T05:31:40.919Z,11.43
2018-12-01T05:34:09.066Z,11.80
2018-12-01T05:36:37.342Z,12.10
2018-12-01T05:39:07.010Z,11.53
2018-12-01T05:41:35.259Z,12.13
2018-12-01T05:44:03.406Z,10.97
2018-12-01T05:46:31.534Z,11.53
2018-12-01T05:48:59.686Z,11.63
2018-12-01T05:51:27.857Z,11.47
2018-12-01T05:53:56.021Z,11.50
2018-12-01T05:56:24.218Z,10.83
2018-12-01T05:58:52.351Z,11.73
2018-12-01T06:01:20.527Z,11.70
2018-12-01T06:03:48.658Z,11.63
2018-12-01T06:06:16.814Z,11.80
2018-12-01T06:08:44.957Z,12.57
2018-12-01T06:11:13.112Z,13.13
2018-12-01T06:13:41.262Z,12.80
2018-12-01T06:16:09.389Z,12.10
2018-12-01T06:18:37.542Z,12.53
2018-12-01T06:21:05.672Z,12.30
2018-12-01T06:23:33.822Z,12.20
2018-12-01T06:26:01.990Z,13.53
2018-12-01T06:28:30.165Z,12.80
2018-12-01T06:30:58.316Z,13.40
2018-12-01T06:33:26.470Z,12.93
2018-12-01T06:35:54.626Z,12.80
2018-12-01T06:38:22.823Z,12.00
2018-12-01T06:40:50.986Z,12.97
2018-12-01T06:43:19.120Z,12.50
2018-12-01T06:45:47.302Z,12.67
2018-12-01T06:48:15.595Z,11.93
2018-12-01T06:50:43.751Z,11.97
2018-12-01T06:53:12.231Z,12.50
2018-12-01T06:55:40.383Z,11.93
2018-12-01T06:58:08.536Z,11.60
2018-12-01T07:00:36.682Z,11.20
2018-12-01T07:03:05.018Z,11.77
2018-12-01T07:05:33.170Z,11.70
2018-12-01T07:08:01.319Z,11.60
2018-12-01T07:10:29.447Z,11.30
2018-12-01T07:12:58.538Z,11.43
2018-12-01T07:15:27.438Z,11.60
2018-12-01T07:17:55.578Z,10.80
2018-12-01T07:20:23.727Z,10.83
2018-12-01T07:22:52.015Z,12.43
2018-12-01T07:25:20.183Z,10.23
2018-12-01T07:27:48.334Z,10.67
2018-12-01T07:30:16.485Z,11.30
2018-12-01T07:32:45.446Z,11.47
2018-12-01T07:35:13.609Z,10.40
2018-12-01T07:37:41.746Z,11.20
2018-12-01T07:40:11.654Z,13.17
2018-12-01T07:42:39.831Z,11.47
2018-12-01T07:45:08.908Z,11.83
2018-12-01T07:47:37.106Z,10.70
2018-12-01T07:50:07.460Z,10.00
2018-12-01T07:52:35.625Z,9.53
2018-12-01T07:55:03.801Z,9.47
2018-12-01T07:57:31.939Z,9.60
2018-12-01T08:00:00.103Z,9.23
2018-12-01T08:02:28.290Z,9.20
2018-12-01T08:04:56.424Z,8.97
2018-12-01T08:07:24.562Z,10.80
2018-12-01T08:09:52.937Z,9.67
2018-12-01T08:12:21.334Z,9.27
2018-12-01T08:14:49.718Z,9.47
2018-12-01T08:17:18.086Z,9.20
2018-12-01T08:19:46.527Z,9.50
2018-12-01T08:22:14.908Z,9.13
2018-12-01T08:24:43.278Z,9.00
2018-12-01T08:27:11.666Z,9.07
2018-12-01T08:29:40.064Z,9.57
2018-12-01T08:32:08.425Z,11.23
2018-12-01T08:34:36.848Z,14.40
2018-12-01T08:37:05.657Z,10.17
2018-12-01T08:39:34.168Z,9.30
2018-12-01T08:42:02.567Z,9.60
2018-12-01T08:44:30.958Z,9.90
2018-12-01T08:46:59.347Z,9.77
2018-12-01T08:49:27.767Z,9.80
2018-12-01T08:51:56.211Z,8.43
2018-12-01T08:54:24.609Z,8.97
2018-12-01T08:56:53.123Z,9.13
2018-12-01T08:59:21.498Z,9.13
2018-12-01T09:01:49.903Z,9.77
2018-12-01T09:04:18.299Z,8.90
2018-12-01T09:06:46.724Z,8.37
2018-12-01T09:09:15.124Z,8.80
2018-12-01T09:11:43.543Z,9.00
2018-12-01T09:14:12.852Z,8.93
2018-12-01T09:16:41.271Z,8.80
2018-12-01T09:19:09.719Z,9.87
2018-12-01T09:21:38.139Z,9.30
2018-12-01T09:24:06.551Z,8.93
2018-12-01T09:26:34.966Z,8.20
2018-12-01T09:29:03.416Z,8.48
2018-12-01T09:31:31.810Z,8.73
2018-12-01T09:34:00.343Z,8.10
2018-12-01T09:36:28.782Z,8.33
2018-12-01T09:38:57.224Z,8.17
2018-12-01T09:41:25.626Z,8.10
2018-12-01T09:43:54.043Z,7.20
2018-12-01T09:46:22.431Z,7.45
2018-12-01T09:48:50.851Z,6.40
2018-12-01T09:51:19.278Z,5.92
2018-12-01T09:53:47.725Z,5.45
2018-12-01T09:56:16.159Z,4.80
2018-12-01T09:58:44.583Z,5.40
2018-12-01T10:01:13.010Z,5.12
2018-12-01T10:03:47.998Z,5.17
2018-12-01T10:06:16.414Z,5.47
2018-12-01T10:08:44.818Z,5.47
2018-12-01T10:11:13.345Z,5.90
2018-12-01T10:13:41.831Z,5.80
2018-12-01T10:16:10.337Z,5.22
2018-12-01T10:18:38.758Z,5.72
2018-12-01T10:21:07.205Z,6.50
2018-12-01T10:23:35.638Z,5.90
2018-12-01T10:26:04.096Z,6.05
2018-12-01T10:28:32.566Z,5.90
2018-12-01T10:31:01.007Z,5.45
2018-12-01T10:33:29.171Z,5.30
2018-12-01T10:35:57.799Z,5.28
2018-12-01T10:38:26.239Z,4.85
2018-12-01T10:40:54.671Z,4.62
2018-12-01T10:43:23.076Z,4.95
2018-12-01T10:45:51.535Z,4.62
2018-12-01T10:48:21.257Z,4.55
2018-12-01T10:50:49.673Z,4.05
2018-12-01T10:53:18.166Z,4.45
2018-12-01T10:55:46.649Z,4.03
2018-12-01T10:58:19.284Z,4.17
2018-12-01T11:00:55.042Z,4.58
2018-12-01T11:03:32.558Z,3.80
2018-12-01T11:06:02.646Z,3.83
2018-12-01T11:08:31.088Z,3.98
2018-12-01T11:10:59.496Z,3.47
2018-12-01T11:13:27.953Z,3.60
2018-12-01T11:15:56.379Z,3.77
2018-12-01T11:18:25.243Z,4.50
2018-12-01T11:20:53.696Z,3.98
2018-12-01T11:23:22.208Z,3.27
2018-12-01T11:25:50.660Z,3.42
2018-12-01T11:28:19.339Z,3.12
2018-12-01T11:30:47.748Z,3.20
2018-12-01T11:33:16.240Z,3.15
2018-12-01T11:35:44.726Z,2.90
2018-12-01T11:38:13.185Z,2.67
2018-12-01T11:40:42.212Z,2.90
2018-12-01T11:43:10.646Z,3.08
2018-12-01T11:45:39.103Z,3.02
2018-12-01T11:48:08.167Z,2.65
2018-12-01T11:50:36.680Z,3.12
2018-12-01T11:53:05.525Z,2.62
2018-12-01T11:55:33.919Z,2.60
2018-12-01T11:58:02.367Z,2.33
2018-12-01T12:00:31.399Z,2.60
2018-12-01T12:02:59.868Z,2.20
2018-12-01T12:05:28.317Z,2.67
2018-12-01T12:08:28.814Z,2.72
2018-12-01T12:10:57.259Z,2.40
2018-12-01T12:13:26.790Z,1.98
2018-12-01T12:15:55.356Z,2.20
2018-12-01T12:18:23.943Z,2.30
2018-12-01T12:20:52.388Z,2.30
2018-12-01T12:23:20.808Z,2.47
2018-12-01T12:25:48.921Z,2.33
2018-12-01T12:28:17.414Z,2.20
2018-12-01T12:30:45.855Z,2.35
2018-12-01T12:33:14.290Z,2.20
2018-12-01T12:35:42.698Z,2.25
2018-12-01T12:38:11.149Z,2.30
2018-12-01T12:40:39.536Z,2.70
2018-12-01T12:43:08.142Z,2.85
2018-12-01T12:45:36.695Z,2.52
2018-12-01T12:48:06.590Z,2.47
2018-12-01T12:50:35.056Z,2.45
2018-12-01T12:53:03.482Z,2.62
2018-12-01T12:55:31.958Z,2.30
2018-12-01T12:58:00.394Z,2.42
2018-12-01T13:00:29.364Z,2.33
2018-12-01T13:03:08.599Z,2.72
2018-12-01T13:05:39.302Z,2.70
2018-12-01T13:08:08.751Z,2.50
2018-12-01T13:10:37.244Z,2.65
2018-12-01T13:13:06.490Z,2.70
2018-12-01T13:15:36.442Z,2.80
2018-12-01T13:18:07.143Z,2.70
2018-12-01T13:20:35.585Z,2.50
2018-12-01T13:23:04.060Z,2.62
2018-12-01T13:25:32.483Z,2.52
2018-12-01T13:28:06.529Z,2.45
2018-12-01T13:30:41.530Z,3.12
2018-12-01T13:33:10.000Z,2.67
2018-12-01T13:35:38.484Z,2.77
2018-12-01T13:38:07.392Z,2.67
2018-12-01T13:40:35.927Z,2.92
2018-12-01T13:43:04.664Z,3.12
2018-12-01T13:45:33.110Z,2.50
2018-12-01T13:48:01.657Z,2.77
2018-12-01T13:50:30.106Z,2.85
2018-12-01T13:53:00.940Z,2.62
2018-12-01T13:55:29.388Z,2.60
2018-12-01T13:57:57.856Z,2.58
2018-12-01T14:00:27.093Z,2.80
2018-12-01T14:02:55.548Z,2.83
2018-12-01T14:05:23.997Z,2.58
2018-12-01T14:07:52.419Z,2.50
2018-12-01T14:10:22.980Z,2.22
2018-12-01T14:12:52.883Z,2.60
2018-12-01T14:15:22.492Z,3.17
2018-12-01T14:17:50.984Z,2.75
2018-12-01T14:20:19.768Z,2.58
2018-12-01T14:22:49.128Z,2.60
2018-12-01T14:25:18.676Z,2.90
2018-12-01T14:27:51.340Z,2.85
2018-12-01T14:30:19.829Z,2.85
2018-12-01T14:32:48.264Z,2.77
2018-12-01T14:35:47.921Z,2.90
2018-12-01T14:38:17.885Z,2.60
2018-12-01T14:40:47.932Z,2.98
2018-12-01T14:43:16.407Z,3.00
2018-12-01T14:45:46.147Z,3.40
2018-12-01T14:48:14.266Z,3.20
2018-12-01T14:50:48.305Z,2.87
2018-12-01T14:53:12.603Z,3.23
2018-12-01T14:55:41.022Z,3.20
2018-12-01T14:58:09.488Z,3.33
2018-12-01T15:00:38.107Z,3.63
2018-12-01T15:03:07.476Z,4.00
2018-12-01T15:05:36.066Z,3.73
2018-12-01T15:08:04.519Z,3.10
2018-12-01T15:10:32.922Z,4.85
2018-12-01T15:13:01.414Z,3.47
2018-12-01T15:15:29.800Z,3.17
2018-12-01T15:17:58.206Z,3.22
2018-12-01T15:20:26.919Z,3.30
2018-12-01T15:22:57.498Z,3.77
2018-12-01T15:25:26.978Z,4.03
2018-12-01T15:27:55.644Z,3.73
2018-12-01T15:30:29.829Z,3.53
2018-12-01T15:33:15.256Z,3.60
2018-12-01T15:35:46.556Z,3.87
2018-12-01T15:38:15.106Z,3.53
2018-12-01T15:40:45.010Z,3.53
2018-12-01T15:43:13.487Z,3.10
2018-12-01T15:45:42.283Z,3.77
2018-12-01T15:48:10.776Z,4.53
2018-12-01T15:50:39.203Z,3.67
2018-12-01T15:53:09.539Z,4.43
2018-12-01T15:55:38.037Z,4.63
2018-12-01T15:58:07.136Z,4.40
2018-12-01T16:00:36.592Z,4.30
2018-12-01T16:03:09.242Z,4.70
2018-12-01T16:05:37.651Z,4.60
2018-12-01T16:08:07.521Z,4.83
2018-12-01T16:10:35.920Z,4.30
2018-12-01T16:13:10.469Z,4.17
2018-12-01T16:15:40.815Z,4.03
2018-12-01T16:18:09.943Z,4.33
2018-12-01T16:20:38.446Z,4.40
2018-12-01T16:23:06.943Z,4.43
2018-12-01T16:25:35.435Z,4.20
2018-12-01T16:28:03.900Z,3.97
2018-12-01T16:30:36.243Z,4.17
2018-12-01T16:42:23.680Z,3.90
2018-12-01T16:44:52.111Z,4.57
2018-12-01T16:47:20.552Z,4.37
2018-12-01T16:49:49.031Z,4.57
2018-12-01T16:52:17.472Z,6.07
2018-12-01T16:54:45.915Z,5.90
2018-12-01T16:57:14.304Z,6.20
2018-12-01T16:59:42.752Z,4.50
2018-12-01T17:02:11.179Z,4.30
2018-12-01T17:04:39.607Z,3.60
2018-12-01T17:07:08.052Z,4.23
2018-12-01T17:09:36.424Z,3.80
2018-12-01T17:12:04.969Z,3.90
2018-12-01T17:14:33.476Z,3.73
2018-12-01T17:17:01.896Z,4.13
2018-12-01T17:19:30.363Z,4.30
2018-12-01T17:21:58.811Z,3.73
2018-12-01T17:24:27.259Z,4.20
2018-12-01T17:26:55.684Z,5.10
2018-12-01T17:29:24.118Z,4.57
2018-12-01T17:31:52.527Z,4.10
2018-12-01T17:34:20.934Z,4.40
2018-12-01T17:36:49.387Z,3.83
2018-12-01T17:39:17.818Z,4.30
2018-12-01T17:41:46.293Z,4.10
2018-12-01T17:44:14.719Z,4.23
2018-12-01T17:46:43.111Z,4.67
2018-12-01T17:49:11.547Z,4.40
2018-12-01T17:51:40.118Z,5.17
2018-12-01T17:54:13.673Z,4.93
2018-12-01T17:56:42.124Z,6.23
2018-12-01T17:59:11.137Z,5.30
2018-12-01T18:01:39.559Z,5.43
2018-12-01T18:04:08.042Z,5.13
2018-12-01T18:06:36.452Z,5.40
2018-12-01T18:09:07.458Z,5.50
2018-12-01T18:11:35.858Z,6.10
2018-12-01T18:14:04.503Z,5.70
2018-12-01T18:16:32.927Z,6.40
2018-12-01T18:19:01.482Z,6.70
2018-12-01T18:21:29.907Z,7.20
2018-12-01T18:23:58.355Z,6.70
2018-12-01T18:26:26.858Z,7.07
2018-12-01T18:28:55.408Z,6.93
2018-12-01T18:31:28.067Z,7.10
2018-12-01T18:34:01.526Z,6.80
2018-12-01T18:36:29.928Z,6.67
2018-12-01T18:38:58.615Z,6.83
2018-12-01T18:41:27.054Z,6.37
2018-12-01T18:43:55.484Z,7.43
2018-12-01T18:46:23.913Z,7.10
2018-12-01T18:48:52.319Z,6.93
2018-12-01T18:51:20.730Z,7.33
2018-12-01T18:53:49.496Z,6.47
2018-12-01T18:56:17.969Z,8.27
2018-12-01T18:58:46.446Z,6.47
2018-12-01T19:01:14.910Z,6.60
2018-12-01T19:03:43.331Z,6.53
2018-12-01T19:06:11.786Z,6.73
2018-12-01T19:08:40.387Z,6.73
2018-12-01T19:11:08.861Z,7.07
2018-12-01T19:13:37.886Z,6.27
2018-12-01T19:16:07.085Z,5.83
2018-12-01T19:18:35.536Z,6.73
2018-12-01T19:21:03.983Z,6.20
2018-12-01T19:23:32.467Z,6.00
2018-12-01T19:26:01.075Z,6.53
2018-12-01T19:28:29.554Z,6.80
2018-12-01T19:30:57.983Z,6.93
2018-12-01T19:33:26.407Z,7.53
2018-12-01T19:35:55.754Z,7.63
2018-12-01T19:38:25.799Z,9.70
2018-12-01T19:40:54.635Z,6.93
2018-12-01T19:43:23.039Z,6.47
2018-12-01T19:45:51.535Z,6.07
2018-12-01T19:48:20.070Z,7.10
2018-12-01T19:50:48.484Z,5.67
2018-12-01T19:53:17.840Z,6.10
2018-12-01T19:55:48.206Z,6.30
2018-12-01T19:58:18.986Z,5.90
2018-12-01T20:00:50.395Z,5.90
2018-12-01T20:03:20.242Z,6.17
2018-12-01T20:05:48.707Z,6.37
2018-12-01T20:08:18.370Z,6.63
2018-12-01T20:10:50.671Z,5.90
2018-12-01T20:13:27.652Z,5.30
2018-12-01T20:16:03.802Z,6.57
2018-12-01T20:18:32.214Z,6.27
2018-12-01T20:21:00.667Z,5.60
2018-12-01T20:23:29.691Z,6.03
2018-12-01T20:25:58.264Z,6.27
2018-12-01T20:28:26.694Z,6.40
2018-12-01T20:30:55.195Z,7.30
2018-12-01T20:33:23.635Z,7.70
2018-12-01T20:36:08.535Z,8.30
2018-12-01T20:38:42.378Z,8.03
2018-12-01T20:41:10.798Z,9.10
2018-12-01T20:43:39.230Z,8.80
2018-12-01T20:46:08.287Z,7.07
2018-12-01T20:48:36.823Z,7.80
2018-12-01T20:51:05.989Z,7.10
2018-12-01T20:53:35.528Z,7.30
2018-12-01T20:56:08.547Z,6.20
2018-12-01T20:58:36.998Z,6.90
2018-12-01T21:01:05.851Z,7.70
2018-12-01T21:03:34.266Z,8.20
2018-12-01T21:06:02.743Z,8.37
2018-12-01T21:08:31.164Z,8.13
2018-12-01T21:11:04.827Z,8.17
2018-12-01T21:13:33.245Z,7.30
2018-12-01T21:16:01.655Z,7.87
2018-12-01T21:18:30.110Z,7.83
2018-12-01T21:20:58.657Z,8.30
2018-12-01T21:23:27.367Z,8.13
2018-12-01T21:25:55.796Z,8.13
2018-12-01T21:28:24.193Z,7.80
2018-12-01T21:30:52.975Z,7.17
2018-12-01T21:33:24.207Z,6.90
2018-12-01T21:35:52.643Z,7.57
2018-12-01T21:38:21.086Z,8.00
2018-12-01T21:40:49.507Z,6.93
2018-12-01T21:43:17.942Z,7.37
2018-12-01T21:45:46.376Z,6.37
2018-12-01T21:48:15.504Z,6.97
2018-12-01T21:50:45.073Z,6.43
2018-12-01T21:53:18.315Z,5.70
2018-12-01T21:55:46.787Z,6.00
2018-12-01T21:58:15.389Z,6.03
2018-12-01T22:00:46.430Z,5.08
2018-12-01T22:03:15.834Z,5.67
2018-12-01T22:05:53.890Z,5.28
2018-12-01T22:08:22.372Z,4.57
2018-12-01T22:10:53.423Z,4.40
2018-12-01T22:13:22.181Z,4.23
2018-12-01T22:15:50.396Z,4.60
2018-12-01T22:18:18.997Z,4.30
2018-12-01T22:20:47.378Z,4.10
2018-12-01T22:23:15.767Z,4.37
2018-12-01T22:25:44.182Z,4.10
2018-12-01T22:28:13.659Z,3.43
2018-12-01T22:30:43.671Z,3.67
2018-12-01T22:33:14.735Z,3.63
2018-12-01T22:35:44.764Z,3.20
2018-12-01T22:38:13.231Z,3.60
2018-12-01T22:40:42.545Z,3.83
2018-12-01T22:43:11.105Z,3.23
2018-12-01T22:45:39.492Z,3.23
2018-12-01T22:48:11.475Z,3.10
2018-12-01T22:50:41.707Z,3.47
2018-12-01T22:53:10.106Z,3.80
2018-12-01T22:55:39.767Z,3.47
2018-12-01T22:58:13.270Z,3.43
2018-12-01T23:00:57.571Z,3.10
2018-12-01T23:03:28.344Z,3.53
2018-12-01T23:05:56.746Z,3.10
2018-12-01T23:08:26.346Z,3.13
2018-12-01T23:10:54.779Z,2.90
2018-12-01T23:13:23.391Z,2.83
2018-12-01T23:15:52.609Z,3.00
2018-12-01T23:18:23.575Z,3.30
2018-12-01T23:20:51.972Z,3.30
2018-12-01T23:23:20.595Z,3.20
2018-12-01T23:25:49.004Z,2.60
2018-12-01T23:28:17.418Z,2.80
2018-12-01T23:30:48.227Z,2.63
2018-12-01T23:33:18.544Z,2.50
2018-12-01T23:35:46.937Z,2.50
2018-12-01T23:38:15.343Z,2.30
2018-12-01T23:40:43.792Z,2.60
2018-12-01T23:43:12.215Z,2.10
2018-12-01T23:45:42.184Z,2.73
2018-12-01T23:48:10.598Z,2.00
2018-12-01T23:50:40.695Z,2.07
2018-12-01T23:53:11.615Z,2.23
2018-12-01T23:55:40.550Z,2.07
2018-12-01T23:58:08.968Z,2.47
